createdAt,value
2018-12-04T00:00:48.461Z,9.30
2018-12-04T00:05:45.789Z,9.20
2018-12-04T00:10:43.093Z,9.00
2018-12-04T00:15:41.576Z,9.00
2018-12-04T00:18:10.550Z,9.00
2018-12-04T00:25:39.033Z,9.00
2018-12-04T00:38:02.307Z,8.90
2018-12-04T00:40:30.557Z,9.00
2018-12-04T00:42:59.769Z,8.90
2018-12-04T00:45:28.407Z,9.00
2018-12-04T00:50:25.879Z,9.00
2018-12-04T01:00:23.208Z,8.90
2018-12-04T01:05:22.257Z,9.00
2018-12-04T01:10:20.133Z,9.00
2018-12-04T01:12:49.280Z,9.10
2018-12-04T01:17:46.657Z,9.10
2018-12-04T01:20:16.015Z,9.10
2018-12-04T01:30:11.374Z,9.10
2018-12-04T01:37:39.664Z,9.10
2018-12-04T01:40:10.069Z,9.10
2018-12-04T01:45:07.594Z,9.00
2018-12-04T01:50:07.090Z,9.00
2018-12-04T02:07:32.198Z,8.90
2018-12-04T02:10:00.727Z,8.90
2018-12-04T02:14:57.992Z,8.90
2018-12-04T02:17:28.503Z,9.00
2018-12-04T02:19:57.004Z,9.00
2018-12-04T02:22:26.713Z,8.90
2018-12-04T02:24:55.333Z,8.80
2018-12-04T02:29:53.431Z,8.90
2018-12-04T02:32:22.372Z,8.80
2018-12-04T02:39:49.307Z,8.80
2018-12-04T02:44:49.282Z,8.90
2018-12-04T02:52:16.651Z,8.90
2018-12-04T02:54:45.346Z,9.00
2018-12-04T02:59:44.709Z,8.90
2018-12-04T03:02:14.943Z,8.80
2018-12-04T03:04:45.534Z,8.80
2018-12-04T03:09:42.587Z,8.70
2018-12-04T03:12:11.319Z,8.60
2018-12-04T03:17:10.450Z,8.60
2018-12-04T03:27:06.505Z,8.60
2018-12-04T03:37:00.855Z,8.30
2018-12-04T03:39:29.485Z,8.30
2018-12-04T03:41:58.118Z,8.30
2018-12-04T03:44:28.285Z,8.30
2018-12-04T03:49:25.364Z,8.30
2018-12-04T03:54:22.197Z,8.30
2018-12-04T04:01:50.289Z,8.20
2018-12-04T04:04:18.536Z,8.10
2018-12-04T04:06:47.868Z,8.10
2018-12-04T04:11:46.571Z,8.10
2018-12-04T04:16:43.534Z,8.00
2018-12-04T04:19:13.421Z,8.00
2018-12-04T04:26:40.242Z,8.00
2018-12-04T04:31:39.700Z,8.00
2018-12-04T04:39:09.766Z,8.10
2018-12-04T04:41:40.906Z,8.10
2018-12-04T04:44:11.534Z,8.20
2018-12-04T05:01:33.425Z,8.20
2018-12-04T05:04:01.740Z,8.20
2018-12-04T05:09:00.113Z,8.20
2018-12-04T05:11:28.972Z,8.20
2018-12-04T05:13:57.998Z,8.20
2018-12-04T05:16:27.492Z,8.20
2018-12-04T05:26:23.353Z,8.10
2018-12-04T05:28:52.502Z,8.00
2018-12-04T05:36:20.793Z,8.20
2018-12-04T05:38:49.318Z,8.10
2018-12-04T05:43:48.350Z,8.10
2018-12-04T05:46:16.886Z,8.10
2018-12-04T05:56:13.489Z,8.00
2018-12-04T06:01:13.780Z,7.90
2018-12-04T06:03:43.150Z,8.00
2018-12-04T06:08:42.150Z,8.00
2018-12-04T06:13:40.260Z,8.10
2018-12-04T06:21:08.857Z,8.10
2018-12-04T06:23:37.101Z,8.00
2018-12-04T06:38:34.612Z,7.80
2018-12-04T06:43:32.890Z,7.80
2018-12-04T06:46:02.495Z,7.70
2018-12-04T06:48:31.534Z,7.80
2018-12-04T06:51:02.224Z,7.80
2018-12-04T06:58:27.390Z,7.90
2018-12-04T07:00:55.625Z,7.80
2018-12-04T07:05:56.622Z,7.80
2018-12-04T07:08:26.530Z,7.80
2018-12-04T07:13:24.249Z,7.70
2018-12-04T07:15:52.914Z,7.70
2018-12-04T07:18:22.083Z,7.80
2018-12-04T07:23:21.301Z,7.80
2018-12-04T07:25:49.549Z,7.80
2018-12-04T07:30:46.185Z,7.90
2018-12-04T07:38:13.208Z,7.90
2018-12-04T07:48:06.575Z,7.80
2018-12-04T07:53:06.571Z,7.90
2018-12-04T07:58:05.389Z,7.90
2018-12-04T08:03:04.949Z,7.90
2018-12-04T08:05:34.548Z,7.90
2018-12-04T08:10:31.680Z,7.70
2018-12-04T08:15:30.812Z,7.70
2018-12-04T08:17:59.452Z,7.60
2018-12-04T08:20:27.875Z,7.70
2018-12-04T08:30:23.117Z,7.50
2018-12-04T08:32:51.377Z,7.50
2018-12-04T08:35:20.278Z,7.60
2018-12-04T08:37:48.526Z,7.50
2018-12-04T08:40:17.330Z,7.50
2018-12-04T08:47:44.578Z,7.60
2018-12-04T08:50:14.336Z,7.60
2018-12-04T09:05:08.560Z,7.80
2018-12-04T09:07:37.142Z,7.80
2018-12-04T09:12:36.491Z,7.70
2018-12-04T09:15:08.171Z,7.60
2018-12-04T09:17:38.158Z,7.60
2018-12-04T09:27:35.207Z,7.60
2018-12-04T09:30:06.802Z,7.70
2018-12-04T09:32:36.403Z,7.70
2018-12-04T09:35:05.860Z,7.70
2018-12-04T09:37:35.458Z,7.60
2018-12-04T09:40:05.963Z,7.60
2018-12-04T09:42:34.702Z,7.60
2018-12-04T09:47:32.276Z,7.60
2018-12-04T09:50:02.174Z,7.60
2018-12-04T09:52:30.456Z,7.70
2018-12-04T09:55:00.545Z,7.70
2018-12-04T10:02:28.546Z,7.80
2018-12-04T10:07:26.592Z,7.90
2018-12-04T10:10:00.446Z,7.90
2018-12-04T10:12:25.452Z,7.90
2018-12-04T10:17:22.158Z,7.90
2018-12-04T10:19:51.249Z,7.90
2018-12-04T10:24:48.436Z,8.10
2018-12-04T10:27:16.933Z,8.10
2018-12-04T10:29:46.636Z,8.20
2018-12-04T10:34:43.663Z,8.40
2018-12-04T10:39:42.482Z,8.50
2018-12-04T10:44:40.578Z,8.80
2018-12-04T10:49:39.885Z,9.10
2018-12-04T10:52:08.981Z,9.20
2018-12-04T11:09:39.107Z,9.50
2018-12-04T11:12:12.251Z,9.40
2018-12-04T11:17:06.781Z,9.40
2018-12-04T11:19:35.297Z,9.30
2018-12-04T11:34:30.107Z,9.30
2018-12-04T11:39:29.209Z,9.10
2018-12-04T11:41:58.602Z,9.20
2018-12-04T11:46:58.272Z,9.00
2018-12-04T11:49:28.362Z,9.10
2018-12-04T11:54:25.570Z,9.20
2018-12-04T12:04:20.145Z,9.10
2018-12-04T12:06:48.416Z,9.20
2018-12-04T12:09:17.404Z,9.30
2018-12-04T12:31:40.923Z,10.50
2018-12-04T12:34:11.435Z,10.40
2018-12-04T12:39:09.633Z,10.10
2018-12-04T12:41:38.264Z,10.10
2018-12-04T12:44:06.899Z,10.20
2018-12-04T12:46:36.342Z,10.10
2018-12-04T12:49:04.884Z,10.10
2018-12-04T13:01:31.172Z,9.70
2018-12-04T13:06:29.742Z,9.60
2018-12-04T13:08:58.428Z,9.40
2018-12-04T13:16:25.975Z,9.30
2018-12-04T13:18:54.585Z,9.30
2018-12-04T13:21:23.251Z,9.30
2018-12-04T13:36:18.038Z,9.20
2018-12-04T13:41:16.035Z,9.30
2018-12-04T13:43:44.983Z,9.30
2018-12-04T13:46:13.507Z,9.40
2018-12-04T13:53:40.862Z,9.40
2018-12-04T13:56:09.479Z,9.30
2018-12-04T14:01:07.067Z,9.30
2018-12-04T14:03:35.695Z,9.30
2018-12-04T14:08:32.770Z,9.30
2018-12-04T14:11:01.459Z,9.20
2018-12-04T14:16:00.712Z,9.20
2018-12-04T14:18:29.790Z,9.20
2018-12-04T14:23:29.641Z,9.20
2018-12-04T14:30:57.323Z,9.20
2018-12-04T14:33:25.828Z,9.20
2018-12-04T14:35:55.940Z,9.20
2018-12-04T14:38:24.807Z,9.20
2018-12-04T14:48:18.509Z,9.00
2018-12-04T14:53:15.349Z,9.00
2018-12-04T14:55:44.446Z,9.00
2018-12-04T14:58:12.602Z,8.90
2018-12-04T15:00:40.915Z,8.80
2018-12-04T15:05:39.855Z,8.80
2018-12-04T15:08:09.083Z,8.80
2018-12-04T15:10:37.692Z,8.80
2018-12-04T15:20:31.478Z,8.70
2018-12-04T15:25:29.578Z,8.60
2018-12-04T15:32:55.689Z,8.40
2018-12-04T15:37:53.245Z,8.20
2018-12-04T15:40:22.651Z,8.20
2018-12-04T15:45:19.811Z,8.20
2018-12-04T16:02:40.699Z,7.70
2018-12-04T16:12:37.441Z,7.60
2018-12-04T16:15:06.554Z,7.70
2018-12-04T16:20:04.866Z,7.60
2018-12-04T16:25:01.495Z,7.60
2018-12-04T16:29:58.655Z,7.60
2018-12-04T16:34:56.328Z,7.60
2018-12-04T16:37:24.564Z,7.50
2018-12-04T16:39:53.690Z,7.50
2018-12-04T16:44:50.748Z,7.40
2018-12-04T16:54:45.873Z,7.20
2018-12-04T16:59:42.676Z,7.20
2018-12-04T17:07:09.805Z,7.10
2018-12-04T17:09:39.441Z,7.10
2018-12-04T17:17:05.661Z,7.10
2018-12-04T17:19:34.694Z,7.10
2018-12-04T17:27:00.586Z,7.00
2018-12-04T17:34:29.829Z,6.90
2018-12-04T17:39:27.193Z,6.80
2018-12-04T17:44:27.271Z,6.90
2018-12-04T17:46:56.213Z,6.80
2018-12-04T17:49:25.472Z,6.80
2018-12-04T17:54:23.585Z,6.70
2018-12-04T17:56:53.649Z,6.70
2018-12-04T18:04:20.224Z,6.60
2018-12-04T18:06:48.781Z,6.60
2018-12-04T18:11:46.065Z,6.50
2018-12-04T18:14:14.652Z,6.50
2018-12-04T18:19:14.463Z,6.40
2018-12-04T18:21:42.781Z,6.40
2018-12-04T18:34:06.350Z,6.20
2018-12-04T18:36:35.605Z,6.20
2018-12-04T18:39:07.473Z,6.10
2018-12-04T18:41:35.791Z,6.10
2018-12-04T18:44:04.421Z,6.10
2018-12-04T19:04:00.167Z,6.00
2018-12-04T19:06:30.551Z,5.90
2018-12-04T19:08:59.593Z,5.90
2018-12-04T19:11:29.162Z,5.80
2018-12-04T19:18:56.416Z,5.80
2018-12-04T19:21:25.366Z,5.80
2018-12-04T19:28:52.814Z,5.80
2018-12-04T19:33:50.392Z,5.70
2018-12-04T19:36:19.544Z,5.70
2018-12-04T19:38:48.582Z,5.70
2018-12-04T19:41:19.099Z,5.70
2018-12-04T19:46:19.388Z,5.70
2018-12-04T19:51:17.902Z,5.70
2018-12-04T19:58:45.132Z,5.60
2018-12-04T20:01:14.405Z,5.60
2018-12-04T20:06:12.286Z,5.60
2018-12-04T20:11:15.236Z,5.50
2018-12-04T20:13:43.523Z,5.50
2018-12-04T20:18:41.504Z,5.40
2018-12-04T20:21:09.653Z,5.40
2018-12-04T20:23:38.659Z,5.40
2018-12-04T20:26:09.810Z,5.40
2018-12-04T20:38:35.967Z,5.30
2018-12-04T20:41:04.603Z,5.30
2018-12-04T20:48:31.797Z,5.30
2018-12-04T20:53:28.482Z,5.20
2018-12-04T21:08:22.344Z,5.10
2018-12-04T21:20:46.903Z,5.10
2018-12-04T21:38:37.357Z,5.20
2018-12-04T21:46:17.258Z,5.20
2018-12-04T21:53:43.369Z,5.20
2018-12-04T22:06:06.778Z,5.30
2018-12-04T22:08:37.202Z,5.30
2018-12-04T22:13:35.654Z,5.30
2018-12-04T22:16:06.155Z,5.30
2018-12-04T22:18:35.258Z,5.40
2018-12-04T22:23:33.272Z,5.40
2018-12-04T22:26:01.493Z,5.50
2018-12-04T22:28:31.064Z,5.50
2018-12-04T22:36:00.261Z,5.50
2018-12-04T22:38:29.001Z,5.50
2018-12-04T22:43:25.348Z,5.50
2018-12-04T22:50:53.628Z,5.50
2018-12-04T23:13:13.833Z,5.70
2018-12-04T23:18:11.593Z,5.70
2018-12-04T23:20:39.811Z,5.70
2018-12-04T23:25:37.669Z,5.90
2018-12-04T23:38:03.026Z,5.80
2018-12-04T23:40:31.743Z,5.90
2018-12-04T23:43:01.047Z,5.80
2018-12-04T23:45:30.279Z,5.90
2018-12-04T23:48:01.324Z,5.70
2018-12-04T23:52:58.880Z,5.80
